createdAt,value
2022-08-05T00:00:17.831Z,21.01
2022-08-05T00:02:51.724Z,21.02
2022-08-05T00:06:01.858Z,21.05
2022-08-05T00:08:34.835Z,21.05
2022-08-05T00:10:55.750Z,21.01
2022-08-05T00:13:38.285Z,20.97
2022-08-05T00:16:08.576Z,20.92
2022-08-05T00:18:36.038Z,20.92
2022-08-05T00:21:06.849Z,21.00
2022-08-05T00:23:46.288Z,21.03
2022-08-05T00:26:20.142Z,20.96
2022-08-05T00:28:46.583Z,20.90
2022-08-05T00:31:16.271Z,20.87
2022-08-05T00:34:55.704Z,20.81
2022-08-05T00:37:12.316Z,20.83
2022-08-05T00:39:16.585Z,20.84
2022-08-05T00:41:55.305Z,20.85
2022-08-05T00:44:30.396Z,20.86
2022-08-05T00:47:02.113Z,20.92
2022-08-05T00:49:44.772Z,20.87
2022-08-05T00:52:28.317Z,20.86
2022-08-05T00:54:55.991Z,20.86
2022-08-05T00:57:25.184Z,20.84
2022-08-05T00:59:59.441Z,20.76
2022-08-05T01:02:26.188Z,20.74
2022-08-05T01:04:52.629Z,20.79
2022-08-05T01:07:19.128Z,20.77
2022-08-05T01:09:46.646Z,20.77
2022-08-05T01:12:24.891Z,20.80
2022-08-05T01:15:04.105Z,20.69
2022-08-05T01:17:39.889Z,20.69
2022-08-05T01:20:29.840Z,20.59
2022-08-05T01:23:23.448Z,20.62
2022-08-05T01:26:04.543Z,20.50
2022-08-05T01:28:34.980Z,20.49
2022-08-05T01:31:09.342Z,20.48
2022-08-05T01:33:49.257Z,20.51
2022-08-05T01:36:28.423Z,20.51
2022-08-05T01:38:56.528Z,20.53
2022-08-05T01:41:30.819Z,20.51
2022-08-05T01:44:00.780Z,20.53
2022-08-05T01:46:42.530Z,20.55
2022-08-05T01:49:24.368Z,20.56
2022-08-05T01:51:58.392Z,20.50
2022-08-05T01:54:30.017Z,20.50
2022-08-05T01:58:12.249Z,20.49
2022-08-05T01:59:48.243Z,20.47
2022-08-05T02:02:17.262Z,20.44
2022-08-05T02:04:49.680Z,20.46
2022-08-05T02:07:21.906Z,20.49
2022-08-05T02:09:51.069Z,20.48
2022-08-05T02:12:27.790Z,20.43
2022-08-05T02:15:12.247Z,20.45
2022-08-05T02:18:30.887Z,20.40
2022-08-05T02:20:50.057Z,20.41
2022-08-05T02:23:22.506Z,20.30
2022-08-05T02:25:51.775Z,20.28
2022-08-05T02:28:29.010Z,20.29
2022-08-05T02:31:02.167Z,20.29
2022-08-05T02:33:38.247Z,20.28
2022-08-05T02:36:10.149Z,20.17
2022-08-05T02:38:43.461Z,20.16
2022-08-05T02:41:14.499Z,20.18
2022-08-05T02:44:02.316Z,20.19
2022-08-05T02:46:33.137Z,20.18
2022-08-05T02:49:01.378Z,20.09
2022-08-05T02:52:03.139Z,20.06
2022-08-05T02:54:35.814Z,20.09
2022-08-05T02:57:03.860Z,20.10
2022-08-05T02:59:50.240Z,20.05
2022-08-05T03:02:22.779Z,20.03
2022-08-05T03:04:53.343Z,19.95
2022-08-05T03:07:59.322Z,19.94
2022-08-05T03:10:09.146Z,19.97
2022-08-05T03:12:38.308Z,20.03
2022-08-05T03:15:07.655Z,20.06
2022-08-05T03:17:41.529Z,20.06
2022-08-05T03:20:09.181Z,20.05
2022-08-05T03:22:36.888Z,20.06
2022-08-05T03:25:32.906Z,20.06
2022-08-05T03:28:00.115Z,20.05
2022-08-05T03:30:30.303Z,20.07
2022-08-05T03:33:02.890Z,20.07
2022-08-05T03:35:30.905Z,20.02
2022-08-05T03:38:01.002Z,20.00
2022-08-05T03:40:32.210Z,20.00
2022-08-05T03:43:01.336Z,20.00
2022-08-05T03:45:28.122Z,19.94
2022-08-05T03:47:57.009Z,19.89
2022-08-05T03:50:33.526Z,19.92
2022-08-05T03:55:50.264Z,19.89
2022-08-05T03:56:26.836Z,19.92
2022-08-05T03:59:01.743Z,19.94
2022-08-05T04:01:32.294Z,19.91
2022-08-05T04:04:10.618Z,19.87
2022-08-05T04:06:38.417Z,19.86
2022-08-05T04:09:15.487Z,19.86
2022-08-05T04:11:47.381Z,19.90
2022-08-05T04:14:18.114Z,19.89
2022-08-05T04:16:44.997Z,19.90
2022-08-05T04:19:13.142Z,19.93
2022-08-05T04:22:08.178Z,19.94
2022-08-05T04:24:27.719Z,19.96
2022-08-05T04:26:54.233Z,19.95
2022-08-05T04:29:20.905Z,19.96
2022-08-05T04:31:48.352Z,19.95
2022-08-05T04:34:19.685Z,19.96
2022-08-05T04:36:59.831Z,19.97
2022-08-05T04:39:27.827Z,19.97
2022-08-05T04:41:55.753Z,19.96
2022-08-05T04:44:29.409Z,19.96
2022-08-05T04:46:59.499Z,19.98
2022-08-05T04:49:38.863Z,19.95
2022-08-05T04:52:14.126Z,19.95
2022-08-05T04:54:41.806Z,19.92
2022-08-05T04:57:08.247Z,19.94
2022-08-05T04:59:38.250Z,19.95
2022-08-05T05:02:37.313Z,19.88
2022-08-05T05:04:52.980Z,19.87
2022-08-05T05:07:29.711Z,19.89
2022-08-05T05:09:59.272Z,19.90
2022-08-05T05:12:29.200Z,19.89
2022-08-05T05:14:55.637Z,19.89
2022-08-05T05:17:24.507Z,19.87
2022-08-05T05:19:56.419Z,19.89
2022-08-05T05:22:26.562Z,19.85
2022-08-05T05:24:57.109Z,19.86
2022-08-05T05:27:25.187Z,19.86
2022-08-05T05:30:15.465Z,19.87
2022-08-05T05:32:55.850Z,19.89
2022-08-05T05:35:23.032Z,19.88
2022-08-05T05:38:00.156Z,19.84
2022-08-05T05:40:29.928Z,19.83
2022-08-05T05:42:57.167Z,19.78
2022-08-05T05:45:24.735Z,19.64
2022-08-05T05:48:05.518Z,19.63
2022-08-05T05:50:34.765Z,19.72
2022-08-05T05:53:20.827Z,19.83
2022-08-05T05:55:52.030Z,19.95
2022-08-05T05:58:30.174Z,19.98
2022-08-05T06:01:12.341Z,19.94
2022-08-05T06:04:00.600Z,19.96
2022-08-05T06:06:31.438Z,20.04
2022-08-05T06:09:01.236Z,20.08
2022-08-05T06:11:30.323Z,20.11
2022-08-05T06:14:02.101Z,20.22
2022-08-05T06:16:32.778Z,20.38
2022-08-05T06:19:05.919Z,20.45
2022-08-05T06:21:36.898Z,20.61
2022-08-05T06:24:07.784Z,20.72
2022-08-05T06:26:39.607Z,20.75
2022-08-05T06:29:42.878Z,20.69
2022-08-05T06:32:05.444Z,20.73
2022-08-05T06:34:48.123Z,20.94
2022-08-05T06:37:56.182Z,21.02
2022-08-05T06:40:07.213Z,21.07
2022-08-05T06:42:33.764Z,21.26
2022-08-05T06:45:00.268Z,21.37
2022-08-05T06:48:13.803Z,21.41
2022-08-05T06:50:18.773Z,21.60
2022-08-05T06:52:58.478Z,21.78
2022-08-05T06:55:30.286Z,21.96
2022-08-05T06:58:19.917Z,22.08
2022-08-05T07:00:49.205Z,22.01
2022-08-05T07:03:16.816Z,22.15
2022-08-05T07:05:44.116Z,22.17
2022-08-05T07:08:13.112Z,22.16
2022-08-05T07:10:52.919Z,21.96
2022-08-05T07:13:59.720Z,21.84
2022-08-05T07:17:59.331Z,22.09
2022-08-05T07:22:28.890Z,22.22
2022-08-05T07:25:22.509Z,22.34
2022-08-05T07:27:57.456Z,22.31
2022-08-05T07:30:32.032Z,22.29
2022-08-05T07:32:59.938Z,22.38
2022-08-05T07:36:03.940Z,22.43
2022-08-05T07:38:32.387Z,22.34
2022-08-05T07:41:16.648Z,22.43
2022-08-05T07:43:47.706Z,22.54
2022-08-05T07:46:24.349Z,22.58
2022-08-05T07:49:02.172Z,22.59
2022-08-05T07:51:37.308Z,22.66
2022-08-05T07:54:08.285Z,22.70
2022-08-05T07:57:00.543Z,22.77
2022-08-05T07:59:38.189Z,22.81
2022-08-05T08:02:16.064Z,22.75
2022-08-05T08:04:44.770Z,22.70
2022-08-05T08:07:12.236Z,22.69
2022-08-05T08:09:38.747Z,22.62
2022-08-05T08:12:11.497Z,22.65
2022-08-05T08:14:47.204Z,22.64
2022-08-05T08:17:16.007Z,22.78
2022-08-05T08:20:42.981Z,22.85
2022-08-05T08:22:30.565Z,22.88
2022-08-05T08:25:03.322Z,22.84
2022-08-05T08:27:39.934Z,22.77
2022-08-05T08:30:27.006Z,22.64
2022-08-05T08:33:02.404Z,22.65
2022-08-05T08:35:35.036Z,22.61
2022-08-05T08:38:07.925Z,22.53
2022-08-05T08:40:35.270Z,22.42
2022-08-05T08:45:16.212Z,22.33
2022-08-05T08:45:51.652Z,22.28
2022-08-05T08:48:43.013Z,22.23
2022-08-05T08:52:01.711Z,22.21
2022-08-05T08:53:53.777Z,22.16
2022-08-05T08:56:22.265Z,22.18
2022-08-05T08:58:49.555Z,22.06
2022-08-05T09:01:23.116Z,22.06
2022-08-05T09:03:55.234Z,22.11
2022-08-05T09:06:24.240Z,22.07
2022-08-05T09:08:57.009Z,22.08
2022-08-05T09:11:50.706Z,22.14
2022-08-05T09:14:57.115Z,22.20
2022-08-05T09:17:00.078Z,22.17
2022-08-05T09:19:28.015Z,22.17
2022-08-05T09:22:23.490Z,22.21
2022-08-05T09:25:01.451Z,22.35
2022-08-05T09:28:05.339Z,22.47
2022-08-05T09:30:23.347Z,22.62
2022-08-05T09:32:50.279Z,22.61
2022-08-05T09:35:26.448Z,22.61
2022-08-05T09:38:17.471Z,22.64
2022-08-05T09:40:51.955Z,22.67
2022-08-05T09:43:40.723Z,22.77
2022-08-05T09:46:27.935Z,22.81
2022-08-05T09:49:07.930Z,22.82
2022-08-05T09:51:49.599Z,22.73
2022-08-05T09:54:28.771Z,22.61
2022-08-05T09:56:57.545Z,22.56
2022-08-05T09:59:27.959Z,22.58
2022-08-05T10:01:58.016Z,22.57
2022-08-05T10:04:35.661Z,22.54
2022-08-05T10:07:14.123Z,22.40
2022-08-05T10:10:14.613Z,22.54
2022-08-05T10:12:49.618Z,22.68
2022-08-05T10:15:20.951Z,22.75
2022-08-05T10:18:13.654Z,22.82
2022-08-05T10:20:44.463Z,22.94
2022-08-05T10:23:55.289Z,23.04
2022-08-05T10:26:49.187Z,23.13
2022-08-05T10:29:23.894Z,23.24
2022-08-05T10:33:01.020Z,23.38
2022-08-05T10:34:57.569Z,23.55
2022-08-05T10:37:40.220Z,23.52
2022-08-05T10:40:45.094Z,23.70
2022-08-05T10:43:17.965Z,23.80
2022-08-05T10:46:06.257Z,23.74
2022-08-05T10:48:52.728Z,23.59
2022-08-05T10:51:28.993Z,23.69
2022-08-05T10:54:00.865Z,23.84
2022-08-05T10:56:30.302Z,23.73
2022-08-05T10:58:58.072Z,23.51
2022-08-05T11:01:55.180Z,23.51
2022-08-05T11:04:27.579Z,23.49
2022-08-05T11:06:57.595Z,23.52
2022-08-05T11:09:45.255Z,23.46
2022-08-05T11:12:43.819Z,23.44
2022-08-05T11:15:20.715Z,23.40
2022-08-05T11:17:59.782Z,23.49
2022-08-05T11:20:33.201Z,23.46
2022-08-05T11:23:09.007Z,23.46
2022-08-05T11:26:06.279Z,23.44
2022-08-05T11:28:36.534Z,23.85
2022-08-05T11:31:05.924Z,23.94
2022-08-05T11:33:46.026Z,23.93
2022-08-05T11:36:16.165Z,23.81
2022-08-05T11:39:02.880Z,23.78
2022-08-05T11:42:00.982Z,23.70
2022-08-05T11:44:53.102Z,23.58
2022-08-05T11:47:48.293Z,23.40
2022-08-05T11:50:21.563Z,23.37
2022-08-05T11:52:50.255Z,23.31
2022-08-05T12:08:25.606Z,23.33
2022-08-05T12:14:43.359Z,23.27
2022-08-05T12:18:02.516Z,23.19
2022-08-05T12:24:24.635Z,23.14
2022-08-05T12:30:45.972Z,23.07
2022-08-05T12:33:50.246Z,23.00
2022-08-05T12:44:36.941Z,22.80
2022-08-05T13:19:11.981Z,23.11
2022-08-05T13:21:37.928Z,23.19
2022-08-05T13:24:44.980Z,23.36
2022-08-05T13:27:11.345Z,23.44
2022-08-05T13:30:35.996Z,23.49
2022-08-05T13:36:16.459Z,23.46
2022-08-05T13:50:00.221Z,23.53
2022-08-05T13:55:50.118Z,23.44
2022-08-05T13:59:57.192Z,23.23
2022-08-05T14:16:55.377Z,23.25
2022-08-05T14:23:55.330Z,23.19
2022-08-05T14:29:04.038Z,23.09
2022-08-05T14:32:03.673Z,23.06
2022-08-05T14:34:18.898Z,23.00
2022-08-05T14:36:50.239Z,22.97
2022-08-05T14:39:23.482Z,22.94
2022-08-05T14:42:19.314Z,22.98
2022-08-05T14:44:41.232Z,22.94
2022-08-05T14:48:05.572Z,22.84
2022-08-05T14:50:48.309Z,22.90
2022-08-05T14:53:16.197Z,22.79
2022-08-05T14:55:42.798Z,22.73
2022-08-05T14:58:33.904Z,22.71
2022-08-05T15:01:04.201Z,22.75
2022-08-05T15:03:49.335Z,22.85
2022-08-05T15:28:16.297Z,22.24
2022-08-05T15:34:19.388Z,22.12
2022-08-05T15:36:46.427Z,22.15
2022-08-05T15:41:00.570Z,22.10
2022-08-05T16:00:32.703Z,22.20
2022-08-05T16:03:09.256Z,22.26
2022-08-05T16:05:36.149Z,22.28
2022-08-05T16:52:31.144Z,22.06
2022-08-05T17:14:42.493Z,21.81
2022-08-05T17:26:34.050Z,21.34
2022-08-05T17:47:11.620Z,21.06
2022-08-05T17:56:41.292Z,21.14
2022-08-05T18:20:28.965Z,20.57
2022-08-05T18:22:57.320Z,20.53
2022-08-05T18:25:25.206Z,20.51
2022-08-05T18:27:55.427Z,20.60
2022-08-05T18:30:23.672Z,20.69
2022-08-05T18:32:53.468Z,20.69
2022-08-05T18:35:20.976Z,20.71
2022-08-05T18:38:08.138Z,20.65
2022-08-05T18:41:55.982Z,20.60
2022-08-05T18:43:23.130Z,20.63
2022-08-05T18:45:54.079Z,20.69
2022-08-05T18:48:31.557Z,20.64
2022-08-05T18:52:02.949Z,20.55
2022-08-05T18:54:05.610Z,20.52
2022-08-05T18:57:01.952Z,20.49
2022-08-05T18:59:43.466Z,20.44
2022-08-05T19:02:35.606Z,20.30
2022-08-05T19:06:05.332Z,20.34
2022-08-05T19:10:37.711Z,20.21
2022-08-05T19:16:24.976Z,20.26
2022-08-05T19:20:03.035Z,20.23
2022-08-05T19:25:53.950Z,20.07
2022-08-05T19:28:50.539Z,20.05
2022-08-05T19:31:19.358Z,20.02
2022-08-05T19:33:56.425Z,20.02
2022-08-05T19:36:25.973Z,20.00
2022-08-05T19:38:58.966Z,19.88
2022-08-05T19:42:06.976Z,19.77
2022-08-05T19:44:45.052Z,19.76
2022-08-05T19:48:05.529Z,19.74
